createdAt,value
2018-11-13T00:01:27.407Z,18.20
2018-11-13T00:03:58.082Z,17.77
2018-11-13T00:06:31.037Z,17.13
2018-11-13T00:09:02.762Z,17.53
2018-11-13T00:11:33.435Z,17.27
2018-11-13T00:14:04.193Z,17.33
2018-11-13T00:16:34.847Z,17.27
2018-11-13T00:19:05.624Z,17.87
2018-11-13T00:21:36.297Z,18.47
2018-11-13T00:24:07.257Z,16.60
2018-11-13T00:26:37.693Z,16.10
2018-11-13T00:29:08.305Z,16.67
2018-11-13T00:31:38.994Z,16.43
2018-11-13T00:34:09.652Z,16.33
2018-11-13T00:36:40.371Z,16.33
2018-11-13T00:39:13.060Z,16.80
2018-11-13T00:41:43.765Z,15.80
2018-11-13T00:44:14.454Z,15.00
2018-11-13T00:46:45.111Z,15.57
2018-11-13T00:49:15.784Z,15.00
2018-11-13T00:51:46.390Z,14.87
2018-11-13T00:54:17.106Z,14.30
2018-11-13T00:56:48.836Z,13.37
2018-11-13T00:59:19.553Z,13.77
2018-11-13T01:01:50.318Z,13.40
2018-11-13T01:04:20.929Z,13.97
2018-11-13T01:06:51.651Z,13.37
2018-11-13T01:09:22.321Z,13.47
2018-11-13T01:11:53.030Z,13.73
2018-11-13T01:14:23.696Z,13.50
2018-11-13T01:16:54.364Z,14.00
2018-11-13T01:19:25.021Z,13.37
2018-11-13T01:21:55.676Z,12.83
2018-11-13T01:24:26.295Z,13.93
2018-11-13T01:26:57.006Z,14.37
2018-11-13T01:29:27.700Z,13.50
2018-11-13T01:31:58.360Z,13.93
2018-11-13T01:34:28.986Z,14.63
2018-11-13T01:36:59.662Z,14.20
2018-11-13T01:39:30.313Z,15.23
2018-11-13T01:42:00.995Z,14.27
2018-11-13T01:44:31.698Z,15.37
2018-11-13T01:47:02.408Z,15.33
2018-11-13T01:49:33.198Z,15.17
2018-11-13T01:52:03.810Z,14.97
2018-11-13T01:54:34.636Z,15.40
2018-11-13T01:57:05.647Z,15.77
2018-11-13T01:59:36.414Z,15.73
2018-11-13T02:02:07.450Z,16.67
2018-11-13T02:04:38.180Z,16.23
2018-11-13T02:07:08.890Z,16.60
2018-11-13T02:09:39.662Z,16.80
2018-11-13T02:12:10.389Z,16.37
2018-11-13T02:14:41.163Z,17.47
2018-11-13T02:17:11.807Z,16.63
2018-11-13T02:19:42.422Z,16.53
2018-11-13T02:22:13.090Z,15.63
2018-11-13T02:24:43.847Z,17.23
2018-11-13T02:27:14.479Z,15.93
2018-11-13T02:29:45.199Z,15.17
2018-11-13T02:32:15.832Z,14.33
2018-11-13T02:34:46.500Z,15.33
2018-11-13T02:37:17.169Z,16.27
2018-11-13T02:39:47.801Z,15.63
2018-11-13T02:42:18.460Z,14.23
2018-11-13T02:44:49.121Z,14.67
2018-11-13T02:47:19.815Z,14.67
2018-11-13T02:49:50.499Z,14.60
2018-11-13T02:52:21.196Z,13.97
2018-11-13T02:54:51.871Z,15.17
2018-11-13T02:57:22.559Z,14.83
2018-11-13T02:59:53.201Z,15.03
2018-11-13T03:02:23.869Z,16.30
2018-11-13T03:04:54.557Z,16.07
2018-11-13T03:07:25.179Z,16.53
2018-11-13T03:09:55.863Z,16.40
2018-11-13T03:12:26.594Z,15.63
2018-11-13T03:14:57.356Z,16.80
2018-11-13T03:17:27.974Z,15.47
2018-11-13T03:19:58.627Z,16.40
2018-11-13T03:22:29.330Z,16.23
2018-11-13T03:24:59.972Z,16.03
2018-11-13T03:27:30.650Z,17.37
2018-11-13T03:30:01.328Z,18.53
2018-11-13T03:32:31.998Z,17.33
2018-11-13T03:35:02.669Z,18.10
2018-11-13T03:37:33.362Z,18.00
2018-11-13T03:40:04.437Z,17.73
2018-11-13T03:42:35.140Z,18.93
2018-11-13T03:45:06.596Z,18.17
2018-11-13T03:47:37.304Z,17.77
2018-11-13T03:50:13.576Z,17.80
2018-11-13T03:52:44.716Z,16.10
2018-11-13T03:55:16.022Z,15.87
2018-11-13T03:57:47.439Z,14.90
2018-11-13T04:00:19.324Z,14.50
2018-11-13T04:02:50.096Z,14.27
2018-11-13T04:05:21.609Z,13.43
2018-11-13T04:07:53.581Z,13.13
2018-11-13T04:10:25.011Z,13.23
2018-11-13T04:12:55.682Z,12.13
2018-11-13T04:15:26.689Z,12.20
2018-11-13T04:17:57.349Z,11.67
2018-11-13T04:20:27.984Z,11.20
2018-11-13T04:22:58.656Z,11.47
2018-11-13T04:25:29.333Z,10.43
2018-11-13T04:28:00.013Z,10.63
2018-11-13T04:30:30.740Z,10.50
2018-11-13T04:33:01.386Z,8.77
2018-11-13T04:35:32.033Z,9.30
2018-11-13T04:38:02.707Z,8.77
2018-11-13T04:40:33.401Z,8.10
2018-11-13T04:43:04.121Z,8.07
2018-11-13T04:45:34.777Z,6.83
2018-11-13T04:48:05.779Z,6.37
2018-11-13T04:50:36.395Z,6.23
2018-11-13T04:53:07.286Z,5.30
2018-11-13T04:55:37.930Z,5.07
2018-11-13T04:58:09.877Z,5.87
2018-11-13T05:00:40.568Z,5.00
2018-11-13T05:03:11.243Z,5.07
2018-11-13T05:05:41.849Z,4.73
2018-11-13T05:08:12.491Z,4.50
2018-11-13T05:10:43.125Z,4.67
2018-11-13T05:13:13.768Z,4.43
2018-11-13T05:15:44.404Z,4.00
2018-11-13T05:18:15.089Z,4.10
2018-11-13T05:23:16.906Z,4.23
2018-11-13T05:25:47.509Z,3.67
2018-11-13T05:28:18.098Z,3.50
2018-11-13T05:30:48.741Z,3.70
2018-11-13T05:33:19.380Z,3.67
2018-11-13T05:35:50.106Z,3.23
2018-11-13T05:38:20.734Z,3.60
2018-11-13T05:40:51.404Z,3.30
2018-11-13T05:43:22.462Z,3.10
2018-11-13T05:45:53.155Z,3.03
2018-11-13T05:48:23.836Z,3.67
2018-11-13T05:50:54.611Z,3.47
2018-11-13T05:53:25.308Z,3.30
2018-11-13T05:55:55.908Z,2.87
2018-11-13T05:58:26.602Z,3.27
2018-11-13T06:00:57.261Z,3.20
2018-11-13T06:03:27.997Z,3.00
2018-11-13T06:05:58.629Z,2.83
2018-11-13T06:08:29.383Z,3.03
2018-11-13T06:10:59.937Z,2.93
2018-11-13T06:13:30.570Z,3.20
2018-11-13T06:16:01.243Z,3.10
2018-11-13T06:18:31.928Z,3.13
2018-11-13T06:21:02.567Z,2.40
2018-11-13T06:23:33.291Z,3.03
2018-11-13T06:26:03.948Z,2.93
2018-11-13T06:28:34.666Z,2.90
2018-11-13T06:31:05.396Z,2.97
2018-11-13T06:36:13.857Z,2.47
2018-11-13T06:38:44.636Z,2.87
2018-11-13T06:41:15.446Z,2.70
2018-11-13T06:43:46.113Z,3.00
2018-11-13T06:46:16.829Z,2.47
2018-11-13T06:48:47.527Z,2.60
2018-11-13T06:51:18.203Z,3.00
2018-11-13T06:54:05.718Z,2.83
2018-11-13T06:56:36.427Z,2.63
2018-11-13T06:59:07.187Z,2.80
2018-11-13T07:01:37.869Z,3.00
2018-11-13T07:04:08.491Z,2.80
2018-11-13T07:06:39.247Z,2.97
2018-11-13T07:09:10.252Z,2.70
2018-11-13T07:11:40.912Z,2.87
2018-11-13T07:14:11.586Z,2.80
2018-11-13T07:16:42.228Z,2.70
2018-11-13T07:19:12.919Z,2.97
2018-11-13T07:21:43.647Z,2.70
2018-11-13T07:24:14.343Z,2.87
2018-11-13T07:26:44.996Z,3.03
2018-11-13T07:29:16.256Z,3.23
2018-11-13T07:31:47.173Z,2.80
2018-11-13T07:34:17.850Z,2.70
2018-11-13T07:36:48.567Z,2.73
2018-11-13T07:39:19.231Z,2.90
2018-11-13T07:41:49.899Z,2.70
2018-11-13T07:44:20.796Z,2.60
2018-11-13T07:46:51.653Z,2.70
2018-11-13T07:49:22.282Z,2.20
2018-11-13T07:51:52.906Z,2.60
2018-11-13T07:54:23.564Z,2.80
2018-11-13T07:56:54.268Z,2.93
2018-11-13T07:59:24.936Z,2.67
2018-11-13T08:01:55.576Z,2.80
2018-11-13T08:04:26.232Z,2.97
2018-11-13T08:06:56.856Z,2.80
2018-11-13T08:09:27.618Z,2.93
2018-11-13T08:11:58.196Z,3.20
2018-11-13T08:14:28.934Z,3.57
2018-11-13T08:16:59.697Z,3.00
2018-11-13T08:19:30.364Z,3.10
2018-11-13T08:22:01.075Z,3.30
2018-11-13T08:24:31.811Z,2.93
2018-11-13T08:27:02.488Z,3.07
2018-11-13T08:29:33.110Z,3.00
2018-11-13T08:32:03.813Z,2.63
2018-11-13T08:34:34.469Z,2.60
2018-11-13T08:37:05.223Z,3.00
2018-11-13T08:39:35.944Z,2.77
2018-11-13T08:42:07.071Z,2.77
2018-11-13T08:44:37.675Z,3.60
2018-11-13T08:47:08.366Z,2.30
2018-11-13T08:49:39.027Z,2.63
2018-11-13T08:52:09.759Z,2.80
2018-11-13T08:54:40.458Z,2.17
2018-11-13T08:57:11.160Z,2.30
2018-11-13T08:59:41.988Z,1.97
2018-11-13T09:02:12.613Z,2.30
2018-11-13T09:04:43.308Z,1.97
2018-11-13T09:07:14.038Z,2.30
2018-11-13T09:09:44.696Z,2.37
2018-11-13T09:12:15.775Z,2.33
2018-11-13T09:14:46.506Z,2.47
2018-11-13T09:17:17.154Z,2.43
2018-11-13T09:19:47.963Z,2.70
2018-11-13T09:22:18.491Z,2.70
2018-11-13T09:24:49.287Z,3.00
2018-11-13T09:27:19.937Z,2.80
2018-11-13T09:29:50.715Z,2.60
2018-11-13T09:32:21.367Z,2.50
2018-11-13T09:34:52.177Z,2.40
2018-11-13T09:37:22.881Z,2.50
2018-11-13T09:39:53.527Z,2.57
2018-11-13T09:42:24.185Z,2.40
2018-11-13T09:44:54.953Z,2.30
2018-11-13T09:47:25.603Z,2.10
2018-11-13T09:49:56.310Z,2.80
2018-11-13T09:52:27.304Z,2.10
2018-11-13T09:54:58.149Z,2.60
2018-11-13T09:57:28.813Z,1.97
2018-11-13T09:59:59.497Z,2.30
2018-11-13T10:02:30.783Z,2.00
2018-11-13T10:05:01.487Z,1.80
2018-11-13T10:07:31.622Z,2.13
2018-11-13T10:10:02.369Z,2.17
2018-11-13T10:12:33.060Z,2.30
2018-11-13T10:15:04.144Z,2.10
2018-11-13T10:17:34.924Z,2.23
2018-11-13T10:20:05.934Z,1.90
2018-11-13T10:22:36.463Z,1.90
2018-11-13T10:25:08.615Z,1.93
2018-11-13T10:27:39.642Z,2.20
2018-11-13T10:30:14.560Z,2.43
2018-11-13T10:32:45.669Z,2.10
2018-11-13T10:35:17.716Z,1.83
2018-11-13T10:37:48.473Z,1.83
2018-11-13T10:40:20.329Z,1.80
2018-11-13T10:42:51.411Z,1.83
2018-11-13T10:45:29.455Z,1.47
2018-11-13T10:48:00.097Z,2.00
2018-11-13T10:50:30.843Z,1.67
2018-11-13T10:53:01.582Z,1.70
2018-11-13T10:55:32.258Z,1.67
2018-11-13T10:58:02.957Z,1.30
2018-11-13T11:00:38.739Z,1.60
2018-11-13T11:03:13.816Z,1.67
2018-11-13T11:05:44.485Z,1.57
2018-11-13T11:08:15.197Z,1.60
2018-11-13T11:10:45.965Z,1.70
2018-11-13T11:13:16.875Z,2.13
2018-11-13T11:15:47.412Z,1.90
2018-11-13T11:18:18.157Z,1.70
2018-11-13T11:20:48.819Z,1.50
2018-11-13T11:23:19.491Z,1.63
2018-11-13T11:25:50.165Z,1.40
2018-11-13T11:28:20.774Z,1.30
2018-11-13T11:30:51.591Z,1.43
2018-11-13T11:33:22.283Z,1.50
2018-11-13T11:35:52.965Z,1.50
2018-11-13T11:38:23.621Z,1.50
2018-11-13T11:40:54.311Z,1.57
2018-11-13T11:43:25.008Z,1.43
2018-11-13T11:45:55.683Z,1.40
2018-11-13T11:48:26.480Z,1.67
2018-11-13T11:50:57.144Z,1.20
2018-11-13T11:53:27.802Z,1.30
2018-11-13T11:55:58.515Z,1.30
2018-11-13T11:58:29.224Z,1.40
2018-11-13T12:00:59.966Z,1.30
2018-11-13T12:03:30.643Z,1.40
2018-11-13T12:06:01.301Z,1.30
2018-11-13T12:08:31.921Z,1.13
2018-11-13T12:11:02.595Z,1.60
2018-11-13T12:13:33.343Z,1.30
2018-11-13T12:16:04.054Z,1.37
2018-11-13T12:18:34.697Z,1.30
2018-11-13T12:21:05.559Z,1.40
2018-11-13T12:23:36.209Z,1.40
2018-11-13T12:26:07.021Z,1.40
2018-11-13T12:28:37.620Z,1.17
2018-11-13T12:31:08.346Z,1.30
2018-11-13T12:33:38.981Z,1.50
2018-11-13T12:36:09.640Z,1.40
2018-11-13T12:38:40.353Z,1.53
2018-11-13T12:41:11.088Z,1.37
2018-11-13T12:43:41.748Z,1.30
2018-11-13T12:46:12.461Z,1.37
2018-11-13T12:48:43.256Z,1.30
2018-11-13T12:51:19.218Z,1.30
2018-11-13T12:53:49.908Z,1.50
2018-11-13T12:56:20.623Z,1.10
2018-11-13T12:58:51.240Z,1.20
2018-11-13T13:01:21.928Z,1.20
2018-11-13T13:03:52.648Z,1.30
2018-11-13T13:06:23.288Z,1.00
2018-11-13T13:08:53.947Z,1.00
2018-11-13T13:11:24.624Z,1.20
2018-11-13T13:14:00.443Z,1.20
2018-11-13T13:16:31.104Z,1.00
2018-11-13T13:19:01.846Z,1.30
2018-11-13T13:21:32.492Z,1.20
2018-11-13T13:24:03.205Z,1.20
2018-11-13T13:26:33.876Z,1.10
2018-11-13T13:29:04.510Z,1.00
2018-11-13T13:31:35.296Z,1.43
2018-11-13T13:34:06.008Z,1.30
2018-11-13T13:36:36.800Z,1.40
2018-11-13T13:39:09.736Z,1.53
2018-11-13T13:41:40.443Z,1.30
2018-11-13T13:44:11.108Z,1.37
2018-11-13T13:46:41.882Z,1.20
2018-11-13T13:49:12.455Z,1.20
2018-11-13T13:51:43.107Z,1.03
2018-11-13T13:54:13.925Z,1.30
2018-11-13T13:56:44.685Z,1.30
2018-11-13T13:59:15.402Z,1.33
2018-11-13T14:01:46.048Z,1.40
2018-11-13T14:04:16.740Z,1.40
2018-11-13T14:06:47.453Z,1.40
2018-11-13T14:09:18.172Z,1.33
2018-11-13T14:11:48.802Z,1.43
2018-11-13T14:14:19.532Z,1.50
2018-11-13T14:16:50.289Z,1.70
2018-11-13T14:19:20.992Z,1.40
2018-11-13T14:21:51.663Z,1.40
2018-11-13T14:24:22.356Z,1.10
2018-11-13T14:26:53.009Z,1.20
2018-11-13T14:29:23.752Z,1.33
2018-11-13T14:31:54.539Z,1.40
2018-11-13T14:34:25.298Z,1.60
2018-11-13T14:36:56.000Z,1.70
2018-11-13T14:39:26.708Z,1.40
2018-11-13T14:41:57.456Z,1.63
2018-11-13T14:44:28.114Z,1.47
2018-11-13T14:46:58.878Z,1.47
2018-11-13T14:49:29.578Z,1.43
2018-11-13T14:52:00.236Z,1.43
2018-11-13T14:54:30.868Z,1.30
2018-11-13T14:57:01.592Z,1.37
2018-11-13T14:59:32.366Z,1.37
2018-11-13T15:02:03.013Z,1.10
2018-11-13T15:04:33.737Z,1.20
2018-11-13T15:07:04.441Z,1.40
2018-11-13T15:09:35.086Z,1.23
2018-11-13T15:12:06.251Z,1.00
2018-11-13T15:14:36.921Z,1.13
2018-11-13T15:17:07.776Z,1.60
2018-11-13T15:19:38.458Z,1.20
2018-11-13T15:22:09.175Z,1.70
2018-11-13T15:24:39.817Z,1.50
2018-11-13T15:27:10.435Z,1.40
2018-11-13T15:29:41.140Z,1.47
2018-11-13T15:32:11.929Z,1.60
2018-11-13T15:34:42.570Z,1.50
2018-11-13T15:37:13.254Z,1.47
2018-11-13T15:39:43.880Z,1.40
2018-11-13T15:42:14.606Z,1.57
2018-11-13T15:44:45.387Z,1.80
2018-11-13T15:47:16.040Z,1.40
2018-11-13T15:49:46.773Z,1.57
2018-11-13T15:52:17.615Z,1.93
2018-11-13T15:54:48.575Z,1.80
2018-11-13T15:57:19.237Z,1.50
2018-11-13T15:59:49.895Z,1.80
2018-11-13T16:02:20.575Z,1.70
2018-11-13T16:04:51.249Z,1.50
2018-11-13T16:07:21.882Z,1.80
2018-11-13T16:09:52.601Z,1.60
2018-11-13T16:12:23.349Z,1.70
2018-11-13T16:14:54.031Z,1.90
2018-11-13T16:17:24.883Z,1.80
2018-11-13T16:19:55.492Z,1.70
2018-11-13T16:22:26.153Z,1.77
2018-11-13T16:24:56.838Z,1.70
2018-11-13T16:27:27.497Z,2.10
2018-11-13T16:29:58.328Z,1.87
2018-11-13T16:32:28.859Z,2.03
2018-11-13T16:34:59.531Z,2.13
2018-11-13T16:37:30.292Z,1.83
2018-11-13T16:40:00.975Z,2.10
2018-11-13T16:42:31.608Z,1.87
2018-11-13T16:45:02.289Z,2.00
2018-11-13T16:47:32.961Z,2.40
2018-11-13T16:50:04.114Z,2.10
2018-11-13T16:52:34.813Z,2.03
2018-11-13T16:55:06.411Z,2.40
2018-11-13T16:57:37.195Z,2.10
2018-11-13T17:00:11.123Z,2.10
2018-11-13T17:02:41.763Z,1.97
2018-11-13T17:05:14.086Z,2.10
2018-11-13T17:07:44.822Z,2.20
2018-11-13T17:10:17.228Z,2.37
2018-11-13T17:12:48.246Z,2.10
2018-11-13T17:15:21.042Z,1.83
2018-11-13T17:17:53.133Z,2.10
2018-11-13T17:20:23.937Z,2.37
2018-11-13T17:22:54.588Z,1.80
2018-11-13T17:25:26.937Z,2.10
2018-11-13T17:27:57.850Z,2.17
2018-11-13T17:30:29.967Z,2.20
2018-11-13T17:33:02.912Z,2.03
2018-11-13T17:35:33.967Z,2.47
2018-11-13T17:38:05.079Z,2.30
2018-11-13T17:40:36.763Z,2.37
2018-11-13T17:43:08.425Z,2.30
2018-11-13T17:45:40.349Z,2.20
2018-11-13T17:48:12.683Z,2.20
2018-11-13T17:50:44.014Z,2.43
2018-11-13T17:53:14.936Z,2.40
2018-11-13T17:55:45.855Z,2.20
2018-11-13T17:58:16.545Z,2.43
2018-11-13T18:00:48.168Z,2.03
2018-11-13T18:03:19.123Z,2.30
2018-11-13T18:05:49.983Z,2.40
2018-11-13T18:08:20.794Z,2.43
2018-11-13T18:10:51.490Z,2.20
2018-11-13T18:13:22.155Z,2.43
2018-11-13T18:15:52.817Z,2.50
2018-11-13T18:18:23.483Z,2.20
2018-11-13T18:20:54.195Z,2.50
2018-11-13T18:23:24.873Z,2.33
2018-11-13T18:25:55.608Z,2.40
2018-11-13T18:28:26.522Z,2.90
2018-11-13T18:30:57.100Z,2.43
2018-11-13T18:33:27.749Z,2.40
2018-11-13T18:35:58.458Z,2.30
2018-11-13T18:38:29.212Z,2.50
2018-11-13T18:40:59.819Z,2.47
2018-11-13T18:43:30.515Z,2.50
2018-11-13T18:46:01.188Z,2.80
2018-11-13T18:48:31.871Z,2.30
2018-11-13T18:51:02.592Z,3.20
2018-11-13T18:53:33.402Z,2.67
2018-11-13T18:56:04.029Z,2.47
2018-11-13T18:58:34.697Z,2.50
2018-11-13T19:01:06.248Z,2.93
2018-11-13T19:03:37.008Z,2.50
2018-11-13T19:06:07.792Z,2.57
2018-11-13T19:08:38.480Z,2.30
2018-11-13T19:11:09.311Z,2.73
2018-11-13T19:13:40.579Z,2.57
2018-11-13T19:16:14.645Z,3.00
2018-11-13T19:18:45.834Z,2.87
2018-11-13T19:21:17.052Z,2.73
2018-11-13T19:23:47.600Z,3.20
2018-11-13T19:26:18.657Z,3.00
2018-11-13T19:28:49.464Z,2.77
2018-11-13T19:31:20.178Z,2.60
2018-11-13T19:33:51.167Z,2.43
2018-11-13T19:36:22.417Z,3.00
2018-11-13T19:38:53.214Z,2.47
2018-11-13T19:41:23.975Z,2.63
2018-11-13T19:43:54.703Z,2.87
2018-11-13T19:46:25.792Z,2.43
2018-11-13T19:48:56.933Z,2.83
2018-11-13T19:51:27.883Z,2.77
2018-11-13T19:53:59.126Z,2.70
2018-11-13T19:56:29.949Z,2.67
2018-11-13T19:59:01.138Z,2.43
2018-11-13T20:01:32.321Z,2.70
2018-11-13T20:04:03.803Z,2.87
2018-11-13T20:06:35.259Z,2.90
2018-11-13T20:09:08.751Z,3.20
2018-11-13T20:11:40.497Z,2.60
2018-11-13T20:14:12.007Z,2.60
2018-11-13T20:16:43.101Z,2.50
2018-11-13T20:19:13.804Z,2.53
2018-11-13T20:21:44.536Z,2.80
2018-11-13T20:24:15.162Z,2.83
2018-11-13T20:26:45.946Z,2.53
2018-11-13T20:29:16.613Z,2.90
2018-11-13T20:31:47.296Z,2.97
2018-11-13T20:34:17.920Z,2.70
2018-11-13T20:36:48.552Z,3.00
2018-11-13T20:39:19.225Z,2.87
2018-11-13T20:41:49.870Z,2.60
2018-11-13T20:44:20.618Z,2.13
2018-11-13T20:46:51.301Z,2.50
2018-11-13T20:49:21.991Z,2.50
2018-11-13T20:51:52.668Z,2.50
2018-11-13T20:54:23.375Z,2.60
2018-11-13T20:56:54.091Z,2.80
2018-11-13T20:59:24.808Z,2.33
2018-11-13T21:01:55.547Z,2.60
2018-11-13T21:04:26.175Z,2.80
2018-11-13T21:06:56.876Z,2.73
2018-11-13T21:09:27.561Z,2.67
2018-11-13T21:11:58.253Z,2.70
2018-11-13T21:14:28.943Z,2.73
2018-11-13T21:16:59.752Z,2.47
2018-11-13T21:19:30.347Z,2.77
2018-11-13T21:22:01.023Z,2.90
2018-11-13T21:24:31.693Z,2.87
2018-11-13T21:27:02.424Z,2.60
2018-11-13T21:29:33.083Z,3.27
2018-11-13T21:32:03.798Z,3.13
2018-11-13T21:34:34.483Z,2.70
2018-11-13T21:37:05.632Z,2.83
2018-11-13T21:39:36.159Z,2.57
2018-11-13T21:42:06.971Z,2.30
2018-11-13T21:44:37.667Z,2.70
2018-11-13T21:47:08.314Z,2.90
2018-11-13T21:49:38.935Z,3.30
2018-11-13T21:52:09.550Z,2.90
2018-11-13T21:54:40.248Z,2.87
2018-11-13T21:57:11.027Z,3.10
2018-11-13T21:59:41.712Z,2.73
2018-11-13T22:02:12.348Z,2.43
2018-11-13T22:04:46.721Z,2.90
2018-11-13T22:07:17.396Z,2.70
2018-11-13T22:09:48.056Z,2.80
2018-11-13T22:12:18.724Z,3.20
2018-11-13T22:14:49.348Z,3.20
2018-11-13T22:17:20.000Z,3.10
2018-11-13T22:19:50.641Z,2.87
2018-11-13T22:22:21.340Z,2.67
2018-11-13T22:24:52.006Z,3.47
2018-11-13T22:27:22.788Z,2.93
2018-11-13T22:29:53.443Z,3.07
2018-11-13T22:32:24.276Z,3.43
2018-11-13T22:34:54.987Z,3.20
2018-11-13T22:37:25.659Z,3.13
2018-11-13T22:39:56.382Z,3.37
2018-11-13T22:42:27.065Z,3.30
2018-11-13T22:44:57.683Z,2.70
2018-11-13T22:47:28.350Z,3.30
2018-11-13T22:49:59.015Z,3.00
2018-11-13T22:52:29.791Z,3.27
2018-11-13T22:55:00.333Z,3.07
2018-11-13T22:57:31.088Z,3.03
2018-11-13T23:00:01.728Z,2.67
2018-11-13T23:02:32.452Z,3.30
2018-11-13T23:05:03.137Z,3.20
2018-11-13T23:07:33.798Z,3.60
2018-11-13T23:10:05.069Z,3.10
2018-11-13T23:12:35.769Z,3.23
2018-11-13T23:15:09.887Z,2.77
2018-11-13T23:17:41.331Z,3.17
2018-11-13T23:20:14.200Z,3.07
2018-11-13T23:22:44.877Z,3.00
2018-11-13T23:25:18.614Z,3.13
2018-11-13T23:27:50.483Z,2.87
2018-11-13T23:30:25.375Z,3.23
2018-11-13T23:32:57.061Z,3.07
2018-11-13T23:35:27.750Z,2.80
2018-11-13T23:37:59.704Z,2.83
2018-11-13T23:40:30.328Z,3.33
2018-11-13T23:43:01.115Z,2.57
2018-11-13T23:45:31.839Z,2.93
2018-11-13T23:48:02.548Z,2.87
2018-11-13T23:50:33.155Z,2.60
2018-11-13T23:53:03.710Z,3.23
2018-11-13T23:55:34.393Z,2.97
2018-11-13T23:58:05.133Z,3.13
